Time,TemperatureF,DewpointF,PressureIn,WindDirection,WindDirectionDegrees,WindSpeedMPH,WindSpeedGustMPH,Humidity,HourlyPrecipIn,Conditions,Clouds,dailyrainin,SoftwareType,DateUTC
2013-11-10 00:00:00,54.1,36.4,30.02,SW,235,1.0,1.0,51,0.00,,FEW180,0.00,VWS V14.01,2013-11-10 08:00:00,
2013-11-10 00:01:00,54.0,36.3,30.02,SW,235,2.0,2.0,51,0.00,,CLR,0.00,VWS V14.01,2013-11-10 08:01:00,
2013-11-10 00:06:00,54.1,36.4,30.02,SW,235,2.0,2.0,51,0.00,,CLR,0.00,VWS V14.01,2013-11-10 08:06:00,
2013-11-10 00:11:00,54.3,36.1,30.03,SW,235,1.0,1.0,50,0.00,,CLR,0.00,VWS V14.01,2013-11-10 08:11:00,
2013-11-10 00:16:00,54.5,36.3,30.03,SW,235,0.0,0.0,50,0.00,,CLR,0.00,VWS V14.01,2013-11-10 08:16:00,
2013-11-10 00:21:00,54.7,36.4,30.03,SW,235,0.0,0.0,50,0.00,,CLR,0.00,VWS V14.01,2013-11-10 08:21:00,
2013-11-10 00:26:00,54.2,37.0,30.03,SW,235,2.0,2.0,52,0.00,,CLR,0.00,VWS V14.01,2013-11-10 08:26:00,
2013-11-10 00:31:00,52.7,36.5,30.04,SW,235,1.0,1.0,54,0.00,,CLR,0.00,VWS V14.01,2013-11-10 08:31:00,
2013-11-10 00:37:00,51.5,36.8,30.04,SW,235,1.0,1.0,57,0.00,,CLR,0.00,VWS V14.01,2013-11-10 08:37:00,
2013-11-10 00:42:00,50.5,36.3,30.04,SW,235,2.0,2.0,58,0.00,,CLR,0.00,VWS V14.01,2013-11-10 08:42:00,
2013-11-10 00:47:00,49.9,35.7,30.04,SW,235,1.0,1.0,58,0.00,,CLR,0.00,VWS V14.01,2013-11-10 08:47:00,
2013-11-10 00:52:00,49.5,35.8,30.04,SW,235,0.0,0.0,59,0.00,,CLR,0.00,VWS V14.01,2013-11-10 08:52:00,
2013-11-10 00:57:00,49.2,35.5,30.05,SW,235,0.0,0.0,59,0.00,,CLR,0.00,VWS V14.01,2013-11-10 08:57:00,
2013-11-10 01:00:00,49.1,35.8,30.04,SW,235,0.0,0.0,60,0.00,,FEW180,0.00,VWS V14.01,2013-11-10 09:00:00,
2013-11-10 01:02:00,49.0,35.7,30.05,SW,235,0.0,0.0,60,0.00,,CLR,0.00,VWS V14.01,2013-11-10 09:02:00,
2013-11-10 01:07:00,49.0,35.7,30.05,SW,235,0.0,0.0,60,0.00,,CLR,0.00,VWS V14.01,2013-11-10 09:07:00,
2013-11-10 01:13:00,49.0,36.2,30.05,SW,235,0.0,0.0,61,0.00,,CLR,0.00,VWS V14.01,2013-11-10 09:13:00,
2013-11-10 01:18:00,48.8,36.0,30.05,SW,235,0.0,0.0,61,0.00,,CLR,0.00,VWS V14.01,2013-11-10 09:18:00,
2013-11-10 01:23:00,48.6,36.2,30.05,SW,235,0.0,0.0,62,0.00,,CLR,0.00,VWS V14.01,2013-11-10 09:23:00,
2013-11-10 01:28:00,48.3,36.3,30.05,SW,235,0.0,0.0,63,0.00,,CLR,0.00,VWS V14.01,2013-11-10 09:28:00,
2013-11-10 01:33:00,48.1,36.1,30.05,SW,235,0.0,0.0,63,0.00,,CLR,0.00,VWS V14.01,2013-11-10 09:33:00,
2013-11-10 01:38:00,47.9,36.3,30.05,SW,235,0.0,0.0,64,0.00,,CLR,0.00,VWS V14.01,2013-11-10 09:38:00,
2013-11-10 01:43:00,47.8,36.2,30.05,SW,235,0.0,0.0,64,0.00,,CLR,0.00,VWS V14.01,2013-11-10 09:43:00,
2013-11-10 01:48:00,47.7,36.1,30.05,SW,235,0.0,0.0,64,0.00,,CLR,0.00,VWS V14.01,2013-11-10 09:48:00,
2013-11-10 01:53:00,47.6,36.4,30.05,SW,235,0.0,0.0,65,0.00,,CLR,0.00,VWS V14.01,2013-11-10 09:53:00,
2013-11-10 01:58:00,47.5,36.3,30.05,SW,235,0.0,0.0,65,0.00,,CLR,0.00,VWS V14.01,2013-11-10 09:58:00,
2013-11-10 02:00:00,47.5,36.3,30.05,SW,235,0.0,0.0,65,0.00,,FEW180,0.00,VWS V14.01,2013-11-10 10:00:00,
2013-11-10 02:03:00,47.4,36.6,30.05,SW,235,0.0,0.0,66,0.00,,CLR,0.00,VWS V14.01,2013-11-10 10:03:00,
2013-11-10 02:08:00,47.4,36.6,30.05,SW,235,0.0,0.0,66,0.00,,CLR,0.00,VWS V14.01,2013-11-10 10:08:00,
2013-11-10 02:14:00,47.4,37.0,30.05,SW,235,0.0,0.0,67,0.00,,CLR,0.00,VWS V14.01,2013-11-10 10:14:00,
2013-11-10 02:19:00,47.4,36.6,30.05,SW,235,0.0,0.0,66,0.00,,CLR,0.00,VWS V14.01,2013-11-10 10:19:00,
2013-11-10 02:24:00,47.3,36.9,30.05,SW,235,0.0,0.0,67,0.00,,CLR,0.00,VWS V14.01,2013-11-10 10:24:00,
2013-11-10 02:29:00,47.3,36.9,30.05,SW,235,0.0,0.0,67,0.00,,CLR,0.00,VWS V14.01,2013-11-10 10:29:00,
2013-11-10 02:34:00,47.2,37.2,30.05,SW,235,0.0,0.0,68,0.00,,CLR,0.00,VWS V14.01,2013-11-10 10:34:00,
2013-11-10 02:36:00,47.3,37.7,30.05,SW,235,0.0,0.0,69,0.00,,CLR,0.00,VWS V14.01,2013-11-10 10:36:00,
2013-11-10 02:41:00,47.3,38.0,30.05,SW,235,0.0,0.0,70,0.00,,CLR,0.00,VWS V14.01,2013-11-10 10:41:00,
2013-11-10 02:46:00,47.2,37.6,30.05,SW,235,1.0,1.0,69,0.00,,CLR,0.00,VWS V14.01,2013-11-10 10:46:00,
2013-11-10 02:51:00,47.0,37.7,30.04,SW,235,0.0,0.0,70,0.00,,CLR,0.00,VWS V14.01,2013-11-10 10:51:00,
2013-11-10 02:56:00,46.9,37.3,30.04,SW,235,1.0,1.0,69,0.00,,CLR,0.00,VWS V14.01,2013-11-10 10:56:00,
2013-11-10 03:00:00,47.2,37.2,30.04,SW,235,2.0,2.0,68,0.00,,FEW180,0.00,VWS V14.01,2013-11-10 11:00:00,
2013-11-10 03:01:00,47.6,37.6,30.04,SW,235,2.0,2.0,68,0.00,,CLR,0.00,VWS V14.01,2013-11-10 11:01:00,
2013-11-10 03:06:00,48.6,37.0,30.04,SW,236,2.0,2.0,64,0.00,,CLR,0.00,VWS V14.01,2013-11-10 11:06:00,
2013-11-10 03:12:00,49.4,36.5,30.05,SW,236,0.0,0.0,61,0.00,,CLR,0.00,VWS V14.01,2013-11-10 11:12:00,
2013-11-10 03:17:00,49.9,36.6,30.04,SW,236,1.0,1.0,60,0.00,,CLR,0.00,VWS V14.01,2013-11-10 11:17:00,
2013-11-10 03:22:00,50.1,36.3,30.04,SW,236,2.0,2.0,59,0.00,,CLR,0.00,VWS V14.01,2013-11-10 11:22:00,
2013-11-10 03:27:00,50.2,36.0,30.04,WSW,237,2.0,2.0,58,0.00,,CLR,0.00,VWS V14.01,2013-11-10 11:27:00,
2013-11-10 03:32:00,49.9,35.7,30.04,WSW,237,1.0,1.0,58,0.00,,CLR,0.00,VWS V14.01,2013-11-10 11:32:00,
2013-11-10 03:37:00,49.5,35.3,30.04,WSW,237,1.0,1.0,58,0.00,,CLR,0.00,VWS V14.01,2013-11-10 11:37:00,
2013-11-10 03:42:00,49.0,35.3,30.04,WSW,237,1.0,1.0,59,0.00,,CLR,0.00,VWS V14.01,2013-11-10 11:42:00,
2013-11-10 03:47:00,48.5,35.3,30.04,WSW,237,0.0,0.0,60,0.00,,CLR,0.00,VWS V14.01,2013-11-10 11:47:00,
2013-11-10 03:52:00,48.3,35.1,30.04,WSW,237,0.0,0.0,60,0.00,,CLR,0.00,VWS V14.01,2013-11-10 11:52:00,
2013-11-10 03:57:00,48.3,35.1,30.04,WSW,237,1.0,1.0,60,0.00,,CLR,0.00,VWS V14.01,2013-11-10 11:57:00,
2013-11-10 04:00:00,48.4,35.2,30.04,WSW,237,0.0,0.0,60,0.00,,FEW180,0.00,VWS V14.01,2013-11-10 12:00:00,
2013-11-10 04:02:00,48.5,35.3,30.03,WSW,237,2.0,2.0,60,0.00,,CLR,0.00,VWS V14.01,2013-11-10 12:02:00,
2013-11-10 04:07:00,48.6,35.4,30.03,WSW,237,1.0,1.0,60,0.00,,CLR,0.00,VWS V14.01,2013-11-10 12:07:00,
2013-11-10 04:12:00,48.8,35.1,30.03,WSW,237,1.0,1.0,59,0.00,,CLR,0.00,VWS V14.01,2013-11-10 12:12:00,
2013-11-10 04:17:00,49.0,35.3,30.03,WSW,237,1.0,1.0,59,0.00,,CLR,0.00,VWS V14.01,2013-11-10 12:17:00,
2013-11-10 04:22:00,49.2,35.5,30.03,WSW,237,1.0,1.0,59,0.00,,CLR,0.00,VWS V14.01,2013-11-10 12:22:00,
2013-11-10 04:27:00,49.2,35.1,30.03,WSW,237,2.0,2.0,58,0.00,,CLR,0.00,VWS V14.01,2013-11-10 12:27:00,
2013-11-10 04:32:00,49.2,35.1,30.03,WSW,237,1.0,1.0,58,0.00,,CLR,0.00,VWS V14.01,2013-11-10 12:32:00,
2013-11-10 04:38:00,49.0,34.9,30.03,WSW,237,2.0,2.0,58,0.00,,CLR,0.00,VWS V14.01,2013-11-10 12:38:00,
2013-11-10 04:43:00,49.1,35.0,30.03,WSW,237,0.0,0.0,58,0.00,,CLR,0.00,VWS V14.01,2013-11-10 12:43:00,
2013-11-10 04:48:00,49.2,35.5,30.03,WSW,237,0.0,0.0,59,0.00,,CLR,0.00,VWS V14.01,2013-11-10 12:48:00,
2013-11-10 04:53:00,48.9,35.2,30.03,WSW,237,4.0,4.0,59,0.00,,CLR,0.00,VWS V14.01,2013-11-10 12:53:00,
2013-11-10 04:58:00,48.1,34.9,30.03,WSW,237,1.0,1.0,60,0.00,,CLR,0.00,VWS V14.01,2013-11-10 12:58:00,
2013-11-10 05:00:00,47.7,34.9,30.03,WSW,237,1.0,1.0,61,0.00,,FEW180,0.00,VWS V14.01,2013-11-10 13:00:00,
2013-11-10 05:03:00,47.3,34.5,30.03,WSW,237,1.0,1.0,61,0.00,,CLR,0.00,VWS V14.01,2013-11-10 13:03:00,
2013-11-10 05:08:00,46.5,34.2,30.04,WSW,237,2.0,2.0,62,0.00,,CLR,0.00,VWS V14.01,2013-11-10 13:08:00,
2013-11-10 05:13:00,45.8,33.9,30.04,WSW,237,2.0,2.0,63,0.00,,CLR,0.00,VWS V14.01,2013-11-10 13:13:00,
2013-11-10 05:18:00,45.5,34.4,30.04,WSW,237,1.0,1.0,65,0.00,,CLR,0.00,VWS V14.01,2013-11-10 13:18:00,
2013-11-10 05:23:00,45.3,34.2,30.04,WSW,237,1.0,1.0,65,0.00,,CLR,0.00,VWS V14.01,2013-11-10 13:23:00,
2013-11-10 05:28:00,45.1,34.4,30.05,WSW,237,0.0,0.0,66,0.00,,CLR,0.00,VWS V14.01,2013-11-10 13:28:00,
2013-11-10 05:33:00,44.8,34.2,30.05,WSW,237,3.0,3.0,66,0.00,,CLR,0.00,VWS V14.01,2013-11-10 13:33:00,
2013-11-10 05:38:00,44.5,33.9,30.05,WSW,237,1.0,1.0,66,0.00,,CLR,0.00,VWS V14.01,2013-11-10 13:38:00,
2013-11-10 05:44:00,44.1,33.9,30.05,WSW,237,2.0,2.0,67,0.00,,CLR,0.00,VWS V14.01,2013-11-10 13:44:00,
2013-11-10 05:49:00,43.9,34.4,30.05,WSW,237,0.0,0.0,69,0.00,,CLR,0.00,VWS V14.01,2013-11-10 13:49:00,
2013-11-10 05:54:00,43.9,34.8,30.05,WSW,237,0.0,0.0,70,0.00,,CLR,0.00,VWS V14.01,2013-11-10 13:54:00,
2013-11-10 05:59:00,43.9,34.8,30.06,WSW,237,0.0,0.0,70,0.00,,CLR,0.00,VWS V14.01,2013-11-10 13:59:00,
2013-11-10 06:00:00,43.9,34.8,30.06,WSW,237,0.0,0.0,70,0.00,,FEW180,0.00,VWS V14.01,2013-11-10 14:00:00,
2013-11-10 06:04:00,43.9,34.8,30.06,WSW,237,1.0,1.0,70,0.00,,SCT180,0.00,VWS V14.01,2013-11-10 14:04:00,
2013-11-10 06:09:00,44.3,35.5,30.06,WSW,237,1.0,1.0,71,0.00,,SCT180,0.00,VWS V14.01,2013-11-10 14:09:00,
2013-11-10 06:14:00,44.4,35.6,30.07,WSW,237,0.0,0.0,71,0.00,,SCT180,0.00,VWS V14.01,2013-11-10 14:14:00,
2013-11-10 06:19:00,44.3,35.5,30.07,WSW,237,0.0,0.0,71,0.00,,SCT180,0.00,VWS V14.01,2013-11-10 14:19:00,
2013-11-10 06:24:00,44.0,35.2,30.07,WSW,237,0.0,0.0,71,0.00,,SCT180,0.00,VWS V14.01,2013-11-10 14:24:00,
2013-11-10 06:29:00,43.7,34.9,30.07,WSW,237,1.0,1.0,71,0.00,,SCT180,0.00,VWS V14.01,2013-11-10 14:29:00,
2013-11-10 06:34:00,43.4,34.6,30.08,WSW,237,0.0,0.0,71,0.00,,SCT180,0.00,VWS V14.01,2013-11-10 14:34:00,
2013-11-10 06:39:00,43.3,34.9,30.07,WSW,237,0.0,0.0,72,0.00,,SCT180,0.00,VWS V14.01,2013-11-10 14:39:00,
2013-11-10 06:44:00,43.2,35.1,30.07,WSW,237,1.0,1.0,73,0.00,,SCT180,0.00,VWS V14.01,2013-11-10 14:44:00,
2013-11-10 06:49:00,43.2,35.1,30.07,WSW,237,1.0,1.0,73,0.00,,SCT180,0.00,VWS V14.01,2013-11-10 14:49:00,
2013-11-10 06:54:00,43.2,35.1,30.08,WSW,237,2.0,2.0,73,0.00,,SCT180,0.00,VWS V14.01,2013-11-10 14:54:00,
2013-11-10 06:59:00,43.4,35.7,30.08,WSW,237,0.0,0.0,74,0.00,,SCT180,0.00,VWS V14.01,2013-11-10 14:59:00,
2013-11-10 07:00:00,43.5,35.8,30.08,WSW,237,0.0,0.0,74,0.00,,FEW180,0.00,VWS V14.01,2013-11-10 15:00:00,
2013-11-10 07:04:00,43.8,36.1,30.08,WSW,237,1.0,1.0,74,0.00,,SCT180,0.00,VWS V14.01,2013-11-10 15:04:00,
2013-11-10 07:10:00,44.0,35.9,30.09,WSW,237,0.0,0.0,73,0.00,,SCT180,0.00,VWS V14.01,2013-11-10 15:10:00,
2013-11-10 07:15:00,44.3,36.2,30.08,WSW,237,0.0,0.0,73,0.00,,SCT180,0.00,VWS V14.01,2013-11-10 15:15:00,
2013-11-10 07:20:00,45.1,37.0,30.08,WSW,237,1.0,1.0,73,0.00,,SCT180,0.00,VWS V14.01,2013-11-10 15:20:00,
2013-11-10 07:25:00,45.8,37.3,30.09,WSW,237,0.0,0.0,72,0.00,,SCT180,0.00,VWS V14.01,2013-11-10 15:25:00,
2013-11-10 07:30:00,46.5,37.6,30.09,WSW,237,0.0,0.0,71,0.00,,SCT180,0.00,VWS V14.01,2013-11-10 15:30:00,
2013-11-10 07:35:00,46.9,37.3,30.09,WSW,237,2.0,2.0,69,0.00,,SCT180,0.00,VWS V14.01,2013-11-10 15:35:00,
2013-11-10 07:40:00,47.4,37.4,30.09,WSW,237,1.0,1.0,68,0.00,,SCT180,0.00,VWS V14.01,2013-11-10 15:40:00,
2013-11-10 07:45:00,48.3,37.9,30.09,WSW,237,0.0,0.0,67,0.00,,SCT180,0.00,VWS V14.01,2013-11-10 15:45:00,
2013-11-10 07:50:00,49.0,37.8,30.09,WSW,237,2.0,2.0,65,0.00,,SCT180,0.00,VWS V14.01,2013-11-10 15:50:00,
2013-11-10 07:55:00,50.0,37.5,30.09,East,101,2.0,2.0,62,0.00,,SCT180,0.00,VWS V14.01,2013-11-10 15:55:00,
2013-11-10 08:00:00,50.8,37.4,30.09,East,92,3.0,3.0,60,0.00,,FEW150,0.00,VWS V14.01,2013-11-10 16:00:00,
2013-11-10 08:05:00,51.6,37.3,30.09,East,85,2.0,2.0,58,0.00,,FEW150,0.00,VWS V14.01,2013-11-10 16:05:00,
2013-11-10 08:10:00,52.3,37.1,30.09,East,85,4.0,4.0,56,0.00,,FEW150,0.00,VWS V14.01,2013-11-10 16:10:00,
2013-11-10 08:15:00,53.0,37.3,30.09,East,85,2.0,2.0,55,0.00,,FEW150,0.00,VWS V14.01,2013-11-10 16:15:00,
2013-11-10 08:20:00,53.9,37.7,30.09,East,85,0.0,0.0,54,0.00,,FEW150,0.00,VWS V14.01,2013-11-10 16:20:00,
2013-11-10 08:26:00,54.8,38.0,30.09,East,85,3.0,3.0,53,0.00,,FEW150,0.00,VWS V14.01,2013-11-10 16:26:00,
2013-11-10 08:31:00,55.3,38.0,30.09,East,85,2.0,2.0,52,0.00,,FEW150,0.00,VWS V14.01,2013-11-10 16:31:00,
2013-11-10 08:36:00,56.1,37.7,30.09,East,85,1.0,1.0,50,0.00,,FEW150,0.00,VWS V14.01,2013-11-10 16:36:00,
2013-11-10 08:41:00,57.0,37.5,30.09,East,85,1.0,1.0,48,0.00,,FEW150,0.00,VWS V14.01,2013-11-10 16:41:00,
2013-11-10 08:46:00,57.7,38.2,30.09,East,85,1.0,1.0,48,0.00,,FEW150,0.00,VWS V14.01,2013-11-10 16:46:00,
2013-11-10 08:51:00,58.6,37.9,30.09,East,85,2.0,2.0,46,0.00,,FEW150,0.00,VWS V14.01,2013-11-10 16:51:00,
2013-11-10 08:56:00,58.9,37.6,30.09,East,85,1.0,1.0,45,0.00,,FEW150,0.00,VWS V14.01,2013-11-10 16:56:00,
2013-11-10 09:00:00,59.3,37.4,30.09,East,85,2.0,2.0,44,0.00,,FEW180,0.00,VWS V14.01,2013-11-10 17:00:00,
2013-11-10 09:01:00,59.4,36.9,30.10,East,85,1.0,1.0,43,0.00,,CLR,0.00,VWS V14.01,2013-11-10 17:01:00,
2013-11-10 09:06:00,59.8,36.1,30.09,East,85,1.0,1.0,41,0.00,,CLR,0.00,VWS V14.01,2013-11-10 17:06:00,
2013-11-10 09:11:00,60.3,36.5,30.09,East,85,0.0,0.0,41,0.00,,CLR,0.00,VWS V14.01,2013-11-10 17:11:00,
2013-11-10 09:16:00,61.5,36.3,30.09,East,85,0.0,0.0,39,0.00,,CLR,0.00,VWS V14.01,2013-11-10 17:16:00,
2013-11-10 09:21:00,62.3,35.7,30.10,East,85,1.0,1.0,37,0.00,,CLR,0.00,VWS V14.01,2013-11-10 17:21:00,
2013-11-10 09:27:00,62.1,35.5,30.10,East,86,3.0,3.0,37,0.00,,CLR,0.00,VWS V14.01,2013-11-10 17:27:00,
2013-11-10 09:32:00,61.8,35.3,30.10,SE,128,5.0,5.0,37,0.00,,CLR,0.00,VWS V14.01,2013-11-10 17:32:00,
2013-11-10 09:37:00,62.0,34.8,30.10,SSE,150,5.0,5.0,36,0.00,,CLR,0.00,VWS V14.01,2013-11-10 17:37:00,
2013-11-10 09:42:00,62.4,35.1,30.10,SSE,159,4.0,4.0,36,0.00,,CLR,0.00,VWS V14.01,2013-11-10 17:42:00,
2013-11-10 09:47:00,62.8,34.8,30.10,South,175,6.0,6.0,35,0.00,,CLR,0.00,VWS V14.01,2013-11-10 17:47:00,
2013-11-10 09:52:00,63.1,35.0,30.10,South,176,3.0,3.0,35,0.00,,CLR,0.00,VWS V14.01,2013-11-10 17:52:00,
2013-11-10 09:57:00,63.4,34.6,30.10,South,176,3.0,3.0,34,0.00,,CLR,0.00,VWS V14.01,2013-11-10 17:57:00,
2013-11-10 10:00:00,63.5,34.7,30.10,SSW,199,4.0,4.0,34,0.00,,FEW180,0.00,VWS V14.01,2013-11-10 18:00:00,
2013-11-10 10:02:00,63.6,34.7,30.10,SSW,199,3.0,3.0,34,0.00,,CLR,0.00,VWS V14.01,2013-11-10 18:02:00,
2013-11-10 10:07:00,63.9,35.0,30.10,SSW,199,1.0,1.0,34,0.00,,CLR,0.00,VWS V14.01,2013-11-10 18:07:00,
2013-11-10 10:12:00,64.4,34.7,30.10,SSW,200,4.0,4.0,33,0.00,,CLR,0.00,VWS V14.01,2013-11-10 18:12:00,
2013-11-10 10:18:00,64.4,34.7,30.10,SSW,198,3.0,3.0,33,0.00,,CLR,0.00,VWS V14.01,2013-11-10 18:18:00,
2013-11-10 10:23:00,64.5,34.8,30.10,SSW,199,2.0,2.0,33,0.00,,CLR,0.00,VWS V14.01,2013-11-10 18:23:00,
2013-11-10 10:28:00,65.5,34.9,30.10,SSW,197,1.0,1.0,32,0.00,,CLR,0.00,VWS V14.01,2013-11-10 18:28:00,
2013-11-10 10:33:00,66.1,34.6,30.10,SSW,197,2.0,2.0,31,0.00,,CLR,0.00,VWS V14.01,2013-11-10 18:33:00,
2013-11-10 10:38:00,66.7,33.5,30.10,South,190,4.0,4.0,29,0.00,,CLR,0.00,VWS V14.01,2013-11-10 18:38:00,
2013-11-10 10:43:00,67.0,32.8,30.10,South,179,5.0,5.0,28,0.00,,CLR,0.00,VWS V14.01,2013-11-10 18:43:00,
2013-11-10 10:48:00,66.8,32.7,30.10,SSE,160,4.0,4.0,28,0.00,,CLR,0.00,VWS V14.01,2013-11-10 18:48:00,
2013-11-10 10:53:00,67.0,32.0,30.10,SSE,157,2.0,2.0,27,0.00,,CLR,0.00,VWS V14.01,2013-11-10 18:53:00,
2013-11-10 10:58:00,67.5,32.4,30.09,SSE,160,3.0,3.0,27,0.00,,CLR,0.00,VWS V14.01,2013-11-10 18:58:00,
2013-11-10 11:00:00,67.5,32.4,30.09,SSE,161,3.0,3.0,27,0.00,,FEW180,0.00,VWS V14.01,2013-11-10 19:00:00,
2013-11-10 11:04:00,67.6,32.5,30.09,SSW,207,6.0,6.0,27,0.00,,CLR,0.00,VWS V14.01,2013-11-10 19:04:00,
2013-11-10 11:09:00,68.0,32.8,30.09,SSW,197,0.0,0.0,27,0.00,,CLR,0.00,VWS V14.01,2013-11-10 19:09:00,
2013-11-10 11:14:00,68.8,33.5,30.09,South,191,4.0,4.0,27,0.00,,CLR,0.00,VWS V14.01,2013-11-10 19:14:00,
2013-11-10 11:19:00,68.8,33.5,30.09,SSW,192,2.0,2.0,27,0.00,,CLR,0.00,VWS V14.01,2013-11-10 19:19:00,
2013-11-10 11:24:00,69.8,32.4,30.09,SSE,162,2.0,2.0,25,0.00,,CLR,0.00,VWS V14.01,2013-11-10 19:24:00,
2013-11-10 11:29:00,70.3,32.8,30.09,SSE,164,3.0,3.0,25,0.00,,CLR,0.00,VWS V14.01,2013-11-10 19:29:00,
2013-11-10 11:34:00,70.1,32.7,30.09,South,170,8.0,8.0,25,0.00,,CLR,0.00,VWS V14.01,2013-11-10 19:34:00,
2013-11-10 11:39:00,70.1,32.7,30.09,SSE,153,4.0,4.0,25,0.00,,CLR,0.00,VWS V14.01,2013-11-10 19:39:00,
2013-11-10 11:44:00,71.0,32.4,30.09,South,172,3.0,3.0,24,0.00,,CLR,0.00,VWS V14.01,2013-11-10 19:44:00,
2013-11-10 11:49:00,70.8,32.3,30.08,South,176,3.0,3.0,24,0.00,,CLR,0.00,VWS V14.01,2013-11-10 19:49:00,
2013-11-10 11:55:00,71.2,33.6,30.08,South,175,3.0,3.0,25,0.00,,CLR,0.00,VWS V14.01,2013-11-10 19:55:00,
2013-11-10 12:00:00,71.3,33.7,30.08,South,173,5.0,5.0,25,0.00,,CLR,0.00,VWS V14.01,2013-11-10 20:00:00,
2013-11-10 12:05:00,72.1,34.4,30.08,South,174,3.0,3.0,25,0.00,,CLR,0.00,VWS V14.01,2013-11-10 20:05:00,
2013-11-10 12:10:00,71.9,33.2,30.08,South,170,2.0,2.0,24,0.00,,CLR,0.00,VWS V14.01,2013-11-10 20:10:00,
2013-11-10 12:15:00,72.4,34.6,30.07,SSE,167,3.0,3.0,25,0.00,,CLR,0.00,VWS V14.01,2013-11-10 20:15:00,
2013-11-10 12:20:00,73.5,34.5,30.07,SSE,162,4.0,4.0,24,0.00,,CLR,0.00,VWS V14.01,2013-11-10 20:20:00,
2013-11-10 12:25:00,73.9,33.8,30.07,SE,131,5.0,5.0,23,0.00,,CLR,0.00,VWS V14.01,2013-11-10 20:25:00,
2013-11-10 12:30:00,73.9,33.8,30.07,SE,131,2.0,2.0,23,0.00,,CLR,0.00,VWS V14.01,2013-11-10 20:30:00,
2013-11-10 12:35:00,74.6,32.1,30.07,SE,127,3.0,3.0,21,0.00,,CLR,0.00,VWS V14.01,2013-11-10 20:35:00,
2013-11-10 12:40:00,74.3,33.0,30.07,SE,132,3.0,3.0,22,0.00,,CLR,0.00,VWS V14.01,2013-11-10 20:40:00,
2013-11-10 12:45:00,74.7,33.4,30.06,SE,131,2.0,2.0,22,0.00,,CLR,0.00,VWS V14.01,2013-11-10 20:45:00,
2013-11-10 12:51:00,75.1,32.5,30.06,SE,131,3.0,3.0,21,0.00,,CLR,0.00,VWS V14.01,2013-11-10 20:51:00,
2013-11-10 12:56:00,74.3,34.1,30.06,SSE,158,3.0,3.0,23,0.00,,CLR,0.00,VWS V14.01,2013-11-10 20:56:00,
2013-11-10 13:00:00,74.4,33.1,30.06,SSE,158,1.0,1.0,22,0.00,,FEW180,0.00,VWS V14.01,2013-11-10 21:00:00,
2013-11-10 13:01:00,74.4,33.1,30.06,SSE,158,4.0,4.0,22,0.00,,CLR,0.00,VWS V14.01,2013-11-10 21:01:00,
2013-11-10 13:06:00,74.0,33.9,30.05,SSE,164,3.0,3.0,23,0.00,,CLR,0.00,VWS V14.01,2013-11-10 21:06:00,
2013-11-10 13:11:00,74.2,35.1,30.05,SSE,163,0.0,0.0,24,0.00,,CLR,0.00,VWS V14.01,2013-11-10 21:11:00,
2013-11-10 13:16:00,74.5,33.2,30.05,SSE,167,3.0,3.0,22,0.00,,CLR,0.00,VWS V14.01,2013-11-10 21:16:00,
2013-11-10 13:21:00,74.7,33.4,30.05,South,186,1.0,1.0,22,0.00,,CLR,0.00,VWS V14.01,2013-11-10 21:21:00,
2013-11-10 13:26:00,75.5,32.9,30.05,South,186,4.0,4.0,21,0.00,,CLR,0.00,VWS V14.01,2013-11-10 21:26:00,
2013-11-10 13:31:00,75.0,33.6,30.05,South,173,3.0,3.0,22,0.00,,CLR,0.00,VWS V14.01,2013-11-10 21:31:00,
2013-11-10 13:36:00,76.3,33.5,30.05,South,173,1.0,1.0,21,0.00,,CLR,0.00,VWS V14.01,2013-11-10 21:36:00,
2013-11-10 13:41:00,76.2,33.5,30.05,South,180,4.0,4.0,21,0.00,,CLR,0.00,VWS V14.01,2013-11-10 21:41:00,
2013-11-10 13:46:00,75.6,33.0,30.04,South,189,5.0,5.0,21,0.00,,CLR,0.00,VWS V14.01,2013-11-10 21:46:00,
2013-11-10 13:51:00,74.8,33.5,30.04,South,189,6.0,6.0,22,0.00,,CLR,0.00,VWS V14.01,2013-11-10 21:51:00,
2013-11-10 13:56:00,74.4,33.1,30.05,SSE,154,7.0,7.0,22,0.00,,CLR,0.00,VWS V14.01,2013-11-10 21:56:00,
2013-11-10 14:00:00,74.6,32.1,30.04,SSE,155,4.0,4.0,21,0.00,,FEW180,0.00,VWS V14.01,2013-11-10 22:00:00,
2013-11-10 14:01:00,74.6,32.1,30.04,SSE,156,3.0,3.0,21,0.00,,CLR,0.00,VWS V14.01,2013-11-10 22:01:00,
2013-11-10 14:07:00,74.5,32.0,30.04,SSE,164,4.0,4.0,21,0.00,,CLR,0.00,VWS V14.01,2013-11-10 22:07:00,
2013-11-10 14:12:00,75.2,31.4,30.04,SE,131,3.0,3.0,20,0.00,,CLR,0.00,VWS V14.01,2013-11-10 22:12:00,
2013-11-10 14:17:00,75.7,31.8,30.04,SE,137,0.0,0.0,20,0.00,,CLR,0.00,VWS V14.01,2013-11-10 22:17:00,
2013-11-10 14:22:00,76.1,32.2,30.04,SSE,162,1.0,1.0,20,0.00,,CLR,0.00,VWS V14.01,2013-11-10 22:22:00,
2013-11-10 14:27:00,76.7,32.7,30.04,SSE,161,2.0,2.0,20,0.00,,CLR,0.00,VWS V14.01,2013-11-10 22:27:00,
2013-11-10 14:32:00,76.4,32.4,30.04,South,180,6.0,6.0,20,0.00,,CLR,0.00,VWS V14.01,2013-11-10 22:32:00,
2013-11-10 14:37:00,75.8,31.9,30.04,South,175,2.0,2.0,20,0.00,,CLR,0.00,VWS V14.01,2013-11-10 22:37:00,
2013-11-10 14:42:00,76.8,31.5,30.04,South,174,3.0,3.0,19,0.00,,CLR,0.00,VWS V14.01,2013-11-10 22:42:00,
2013-11-10 14:47:00,76.4,33.6,30.04,South,174,4.0,4.0,21,0.00,,CLR,0.00,VWS V14.01,2013-11-10 22:47:00,
2013-11-10 14:52:00,76.2,32.2,30.05,South,191,7.0,7.0,20,0.00,,CLR,0.00,VWS V14.01,2013-11-10 22:52:00,
2013-11-10 14:57:00,75.8,31.9,30.04,SSW,192,2.0,2.0,20,0.00,,CLR,0.00,VWS V14.01,2013-11-10 22:57:00,
2013-11-10 15:00:00,76.2,32.2,30.04,SSW,192,1.0,1.0,20,0.00,,FEW180,0.00,VWS V14.01,2013-11-10 23:00:00,
2013-11-10 15:02:00,76.6,32.6,30.05,SSW,192,4.0,4.0,20,0.00,,FEW180,0.00,VWS V14.01,2013-11-10 23:02:00,
2013-11-10 15:08:00,75.8,33.1,30.04,SSW,197,3.0,3.0,21,0.00,,FEW180,0.00,VWS V14.01,2013-11-10 23:08:00,
2013-11-10 15:13:00,75.5,32.9,30.04,SSW,197,2.0,2.0,21,0.00,,FEW180,0.00,VWS V14.01,2013-11-10 23:13:00,
2013-11-10 16:00:00,76.0,36.6,29.97,SW,225,2.0,6.0,24,0.00,,FEW180,0.00,VWS V14.01,2013-11-11 00:00:00,
2013-11-10 17:00:00,73.0,39.8,29.97,SW,225,2.0,6.0,30,0.00,,FEW180,0.00,VWS V14.01,2013-11-11 01:00:00,
2013-11-10 18:00:00,69.4,41.3,29.99,SW,225,0.0,3.0,36,0.00,,FEW180,0.00,VWS V14.01,2013-11-11 02:00:00,
2013-11-10 19:00:00,63.1,42.0,30.00,SW,225,0.0,1.0,46,0.00,,FEW180,0.00,VWS V14.01,2013-11-11 03:00:00,
2013-11-10 20:00:00,59.1,41.5,30.01,SW,225,0.0,2.0,52,0.00,,FEW180,0.00,VWS V14.01,2013-11-11 04:00:00,
2013-11-10 21:00:00,56.7,38.8,30.02,SW,225,1.0,3.0,51,0.00,,-RA,0.00,VWS V15.00,2013-11-11 05:00:00,
2013-11-10 21:03:00,55.1,40.6,30.08,SW,225,0.0,1.0,58,0.00,,FEW180,0.00,VWS V14.01,2013-11-11 05:03:00,
2013-11-10 21:09:00,52.7,38.3,30.08,SW,224,0.0,0.0,58,0.00,,FEW180,0.00,VWS V14.01,2013-11-11 05:09:00,
2013-11-10 21:14:00,52.7,38.3,30.08,SW,224,0.0,0.0,58,0.00,,FEW180,0.00,VWS V14.01,2013-11-11 05:14:00,
2013-11-10 21:19:00,52.7,38.3,30.08,SW,224,0.0,0.0,58,0.00,,FEW180,0.00,VWS V14.01,2013-11-11 05:19:00,
2013-11-10 21:24:00,52.7,38.3,30.08,SW,224,0.0,0.0,58,0.00,,FEW180,0.00,VWS V14.01,2013-11-11 05:24:00,
2013-11-10 21:29:00,52.7,38.3,30.08,SW,224,0.0,0.0,58,0.00,,FEW180,0.00,VWS V14.01,2013-11-11 05:29:00,
2013-11-10 21:34:00,52.6,38.3,30.08,SW,224,0.0,0.0,58,0.00,,FEW180,0.00,VWS V14.01,2013-11-11 05:34:00,
2013-11-10 21:39:00,52.5,38.6,30.08,SW,224,0.0,0.0,59,0.00,,FEW180,0.00,VWS V14.01,2013-11-11 05:39:00,
2013-11-10 21:44:00,52.3,38.4,30.08,SW,224,0.0,0.0,59,0.00,,FEW180,0.00,VWS V14.01,2013-11-11 05:44:00,
2013-11-10 21:49:00,52.1,38.2,30.08,SW,224,0.0,0.0,59,0.00,,FEW180,0.00,VWS V14.01,2013-11-11 05:49:00,
2013-11-10 21:54:00,52.0,38.6,30.08,SW,224,0.0,0.0,60,0.00,,FEW180,0.00,VWS V14.01,2013-11-11 05:54:00,
2013-11-10 22:00:00,51.9,38.5,30.08,SW,224,0.0,0.0,60,0.00,,FEW180,0.00,VWS V14.01,2013-11-11 06:00:00,
2013-11-10 22:05:00,51.7,38.3,30.08,SW,224,0.0,0.0,60,0.00,,CLR,0.00,VWS V14.01,2013-11-11 06:05:00,
2013-11-10 22:10:00,51.7,38.3,30.08,SW,224,0.0,0.0,60,0.00,,CLR,0.00,VWS V14.01,2013-11-11 06:10:00,
2013-11-10 22:15:00,51.6,38.2,30.08,SW,224,0.0,0.0,60,0.00,,CLR,0.00,VWS V14.01,2013-11-11 06:15:00,
2013-11-10 22:20:00,51.5,38.5,30.08,SW,224,0.0,0.0,61,0.00,,CLR,0.00,VWS V14.01,2013-11-11 06:20:00,
2013-11-10 22:25:00,51.2,38.2,30.08,SW,224,0.0,0.0,61,0.00,,CLR,0.00,VWS V14.01,2013-11-11 06:25:00,
2013-11-10 22:30:00,51.0,38.0,30.08,SW,224,0.0,0.0,61,0.00,,CLR,0.00,VWS V14.01,2013-11-11 06:30:00,
2013-11-10 22:35:00,50.9,38.0,30.08,SW,224,0.0,0.0,61,0.00,,CLR,0.00,VWS V14.01,2013-11-11 06:35:00,
2013-11-10 22:40:00,50.8,38.3,30.08,SW,224,0.0,0.0,62,0.00,,CLR,0.00,VWS V14.01,2013-11-11 06:40:00,
2013-11-10 22:45:00,50.7,38.2,30.08,SW,224,0.0,0.0,62,0.00,,CLR,0.00,VWS V14.01,2013-11-11 06:45:00,
2013-11-10 22:50:00,50.6,38.1,30.08,SW,224,0.0,0.0,62,0.00,,CLR,0.00,VWS V14.01,2013-11-11 06:50:00,
2013-11-10 22:55:00,50.6,38.1,30.08,SW,224,0.0,0.0,62,0.00,,CLR,0.00,VWS V14.01,2013-11-11 06:55:00,
2013-11-10 23:00:00,50.5,38.0,30.08,SW,224,0.0,0.0,62,0.00,,CLR,0.00,VWS V14.01,2013-11-11 07:00:00,
2013-11-10 23:06:00,50.5,38.0,30.08,SW,224,0.0,0.0,62,0.00,,CLR,0.00,VWS V14.01,2013-11-11 07:06:00,
2013-11-10 23:11:00,50.4,37.9,30.09,SW,224,0.0,0.0,62,0.00,,CLR,0.00,VWS V14.01,2013-11-11 07:11:00,
2013-11-10 23:16:00,50.3,38.2,30.08,SW,224,0.0,0.0,63,0.00,,CLR,0.00,VWS V14.01,2013-11-11 07:16:00,
2013-11-10 23:21:00,50.0,37.5,30.09,SW,224,0.0,0.0,62,0.00,,CLR,0.00,VWS V14.01,2013-11-11 07:21:00,
2013-11-10 23:26:00,49.8,37.3,30.09,SW,224,0.0,0.0,62,0.00,,CLR,0.00,VWS V14.01,2013-11-11 07:26:00,
2013-11-10 23:31:00,49.7,37.2,30.09,SW,224,0.0,0.0,62,0.00,,CLR,0.00,VWS V14.01,2013-11-11 07:31:00,
2013-11-10 23:36:00,49.4,36.5,30.09,SW,224,0.0,0.0,61,0.00,,CLR,0.00,VWS V14.01,2013-11-11 07:36:00,
2013-11-10 23:41:00,49.1,35.8,30.09,SW,224,0.0,0.0,60,0.00,,CLR,0.00,VWS V14.01,2013-11-11 07:41:00,
2013-11-10 23:46:00,48.9,36.1,30.09,SW,224,0.0,0.0,61,0.00,,CLR,0.00,VWS V14.01,2013-11-11 07:46:00,
2013-11-10 23:51:00,48.8,35.5,30.09,SW,224,0.0,0.0,60,0.00,,CLR,0.00,VWS V14.01,2013-11-11 07:51:00,
2013-11-10 23:56:00,48.8,35.5,30.09,SW,224,0.0,0.0,60,0.00,,CLR,0.00,VWS V14.01,2013-11-11 07:56:00,